Valdez, AK

8:04 PM AKDT on August 28, 2015 (GMT -0800)
Valdez | | Change Station
CLOSE
Current Station
Airport
Location: Valdez Airport,
Elevation: 121 ft
Nearby Weather Stations

Elev 121 ft 61.13 °N, 146.25 °W | Updated 8 minutes ago

Scattered Clouds
Scattered Clouds
57 °F
Feels Like 57 °F
N
8
Wind Variable Wind from SSW
Gusts 16 mph

Today
High -- | Low -- °F
--% Chance of Precip.
Yesterday
High -- | Low -- °F
Precip. -- in
6:26 AM 9:03 PM
Waxing Gibbous, 99% visible
Pressure 29.56 in
Visibility 10.0 miles
Clouds Scattered Clouds 8500 ft
Scattered Clouds 12000 ft
Dew Point 21 °F
Humidity 25%
Rainfall 0.02 in
Snow Depth Not available.
UV 0 out of 12
Pollen Not available.
Air Quality Not available.
Flu Activity Not available.
METAR PAVD 290356Z 20007G14KT 10SM SCT085 SCT120 14/M06 A2956 RMK AO1 0347Z WEA: NONE TWR WND 08011G23KT
Pressure 29.56 in
Visibility 10.0 miles
Clouds Scattered Clouds 8500 ft
Scattered Clouds 12000 ft
Dew Point 21 °F
Humidity 25%
Rainfall 0.02 in
Snow Depth Not available.
UV 0 out of 12
Pollen Not available.
Air Quality Not available.
Flu Activity Not available.
METAR PAVD 290356Z 20007G14KT 10SM SCT085 SCT120 14/M06 A2956 RMK AO1 0347Z WEA: NONE TWR WND 08011G23KT

10-Day Weather Forecast

×

Almanac

Astronomy

Aug. 28, 2015 Rise Set
Actual Time
Civil Twilight
Nautical Twilight
Astronomical Twilight
Moon
Length of Visible Light
Length of Day
Tomorrow will be .
, % of the Moon is Illuminated

Today's Extremes

State Highs State Lows

Community

WunderPhotos

Upload Photos

1,850,611 photos uploaded!

WunderBlogs® & News

Nearby

Air Quality

  Air Quality AQ Index Pollutant
Not available.

Snow Depth

Station Depth Elevation

Earthquake Activity

City Distance Mag. Time & Date
Minimum magnitude displayed is 2.5.

Coastal Water Temperatures

Place Temperature

Stations

Nearby Weather Stations

Station Location Temp. Windchill Dew Point Humidity Wind Precip. Elev Updated Type